Time;durP1;ratioP1;P1;durP2;ratioP2;P2;SDS_P1;SDS_P2;PMS_P1;PMS_P2;Temp;Humidity;BMP_temperature;BMP_pressure;BME280_temperature;BME280_humidity;BME280_pressure;Samples;Min_cycle;Max_cycle;Signal;HPM_P1;HPM_P2
2021/08/05 00:01:52;;;;;;;23.92;18.55;;;;;;;19.46;100.00;101054.94;1729905;81;21114;-87
2021/08/05 00:04:19;;;;;;;23.12;18.15;;;;;;;19.40;100.00;101063.02;1739171;80;21150;-86
2021/08/05 00:07:04;;;;;;;22.58;18.02;;;;;;;19.34;100.00;101053.11;1736797;80;21790;-84
2021/08/05 00:10:56;;;;;;;20.75;18.65;;;;;;;19.33;100.00;101051.45;1807389;78;26537;-83
2021/08/05 00:13:23;;;;;;;25.75;18.27;;;;;;;19.27;100.00;101046.83;1741206;80;21060;-88
2021/08/05 00:15:50;;;;;;;19.42;17.40;;;;;;;19.27;100.00;101045.51;1758870;80;21486;-83
2021/08/05 00:18:18;;;;;;;19.23;16.93;;;;;;;19.25;100.00;101040.87;1738365;80;21459;-82
2021/08/05 00:20:46;;;;;;;20.45;17.45;;;;;;;19.20;100.00;101044.81;1748978;80;21075;-87
2021/08/05 00:23:13;;;;;;;18.02;16.15;;;;;;;19.19;100.00;101041.03;1749580;80;20957;-85
2021/08/05 00:25:41;;;;;;;18.50;16.60;;;;;;;19.19;100.00;101040.52;1733717;80;20925;-87
2021/08/05 00:28:08;;;;;;;22.73;17.17;;;;;;;19.18;100.00;101046.81;1739306;80;21763;-85
2021/08/05 00:30:35;;;;;;;19.32;17.07;;;;;;;19.16;100.00;101039.55;1732460;81;21495;-84
2021/08/05 00:33:02;;;;;;;20.08;16.35;;;;;;;19.15;100.00;101033.92;1740189;80;21553;-87
2021/08/05 00:35:29;;;;;;;19.92;16.12;;;;;;;19.16;100.00;101030.30;1729656;81;21226;-87
2021/08/05 00:37:56;;;;;;;18.50;16.45;;;;;;;19.16;100.00;101033.42;1730825;81;21001;-86
2021/08/05 00:40:23;;;;;;;17.65;15.80;;;;;;;19.15;100.00;101037.89;1751281;80;21963;-87
2021/08/05 00:42:50;;;;;;;18.17;16.40;;;;;;;19.15;100.00;101031.80;1739448;80;21040;-83
2021/08/05 00:45:18;;;;;;;17.98;15.65;;;;;;;19.11;100.00;101029.95;1734737;80;21455;-84
2021/08/05 00:47:45;;;;;;;18.70;16.80;;;;;;;19.03;100.00;101027.28;1740856;80;21170;-89
2021/08/05 00:50:12;;;;;;;19.02;17.05;;;;;;;18.97;100.00;101021.34;1731086;80;21056;-84
2021/08/05 00:52:41;;;;;;;19.20;17.20;;;;;;;18.99;100.00;101018.05;1756240;80;21119;-83
2021/08/05 00:55:09;;;;;;;22.02;17.62;;;;;;;19.00;100.00;101021.03;1738261;80;21089;-84
2021/08/05 00:57:36;;;;;;;20.08;18.07;;;;;;;18.98;100.00;101017.23;1747364;80;21037;-82
2021/08/05 01:00:05;;;;;;;20.35;17.20;;;;;;;19.01;100.00;101020.05;1737367;80;21036;-85
2021/08/05 01:02:36;;;;;;;19.10;17.10;;;;;;;19.05;100.00;101023.52;1755059;80;21558;-83
2021/08/05 01:05:05;;;;;;;18.25;16.40;;;;;;;19.06;100.00;101027.81;1750423;80;21993;-84
2021/08/05 01:07:46;;;;;;;21.68;15.55;;;;;;;19.03;100.00;101026.81;1735373;80;21028;-83
2021/08/05 01:10:38;;;;;;;22.82;16.75;;;;;;;18.94;100.00;101017.72;1708693;80;21069;-84
2021/08/05 01:13:14;;;;;;;22.75;17.45;;;;;;;18.83;100.00;101012.22;1736376;80;21041;-86
2021/08/05 01:15:45;;;;;;;20.43;17.80;;;;;;;18.79;100.00;101009.55;1759048;80;21092;-88
2021/08/05 01:18:17;;;;;;;20.55;17.73;;;;;;;18.83;100.00;101011.71;1733433;80;21868;-86
2021/08/05 01:20:46;;;;;;;22.80;17.92;;;;;;;18.87;100.00;101013.53;1753829;80;21127;-86
2021/08/05 01:23:24;;;;;;;20.32;17.65;;;;;;;18.88;100.00;101012.55;1741821;80;21080;-87
2021/08/05 01:26:05;;;;;;;28.95;17.57;;;;;;;18.87;100.00;101005.11;1741009;80;21090;-87
2021/08/05 01:28:38;;;;;;;22.55;17.90;;;;;;;18.86;100.00;101006.13;1745781;80;21060;-83
2021/08/05 01:31:25;;;;;;;23.52;17.67;;;;;;;18.80;100.00;101005.93;1772875;79;21160;-87
2021/08/05 01:33:58;;;;;;;18.80;17.00;;;;;;;18.67;100.00;101000.59;1717836;80;21120;-87
2021/08/05 01:36:27;;;;;;;24.15;17.80;;;;;;;18.64;100.00;101001.41;1754896;80;21032;-84
2021/08/05 01:38:56;;;;;;;20.20;17.23;;;;;;;18.67;100.00;101003.73;1753962;80;21049;-84
2021/08/05 01:41:30;;;;;;;19.25;15.72;;;;;;;18.72;100.00;101006.23;1771976;79;21139;-85
2021/08/05 01:43:59;;;;;;;24.65;17.37;;;;;;;18.76;100.00;101008.88;1747920;80;21866;-86
2021/08/05 01:46:26;;;;;;;20.48;16.30;;;;;;;18.74;100.00;101007.39;1752950;80;21064;-85
2021/08/05 01:48:55;;;;;;;20.12;16.40;;;;;;;18.71;100.00;101010.34;1769077;80;21483;-88
2021/08/05 01:51:24;;;;;;;21.73;16.97;;;;;;;18.67;100.00;101004.55;1747989;80;21091;-86
2021/08/05 01:53:52;;;;;;;23.77;16.62;;;;;;;18.65;100.00;101001.27;1753654;79;21080;-84
2021/08/05 01:59:39;;;;;;;21.07;17.27;;;;;;;18.63;100.00;101002.42;1554127;89;21054;-83
2021/08/05 02:02:08;;;;;;;21.60;18.00;;;;;;;18.58;100.00;101001.07;1719490;80;21025;-86
2021/08/05 02:04:46;;;;;;;27.22;18.45;;;;;;;18.56;100.00;101006.98;1723489;81;21005;-85
2021/08/05 02:07:24;;;;;;;33.42;18.07;;;;;;;18.57;100.00;101002.05;1712142;82;21068;-88
2021/08/05 02:10:06;;;;;;;47.48;19.10;;;;;;;18.55;100.00;101005.84;1714127;82;21102;-85
2021/08/05 02:12:40;;;;;;;30.60;19.05;;;;;;;18.50;100.00;100995.77;1743352;81;21511;-87
2021/08/05 02:15:09;;;;;;;26.68;18.82;;;;;;;18.49;100.00;100999.37;1716954;81;21069;-85
2021/08/05 02:17:41;;;;;;;20.82;18.62;;;;;;;18.50;100.00;100999.72;1742958;81;21084;-86
2021/08/05 02:20:11;;;;;;;20.50;17.42;;;;;;;18.53;100.00;100997.25;1715408;80;21065;-85
2021/08/05 02:22:43;;;;;;;23.47;18.90;;;;;;;18.56;100.00;101004.86;1716866;82;21041;-84
2021/08/05 02:25:12;;;;;;;24.67;17.92;;;;;;;18.57;100.00;100995.96;1703024;83;21568;-86
2021/08/05 02:27:41;;;;;;;20.02;17.95;;;;;;;18.58;100.00;100994.48;1680017;83;21066;-86
2021/08/05 02:30:11;;;;;;;19.35;17.20;;;;;;;18.54;100.00;100989.20;1698440;83;21523;-84
2021/08/05 02:32:40;;;;;;;23.50;17.98;;;;;;;18.50;100.00;100981.26;1682166;83;21497;-86
2021/08/05 02:35:10;;;;;;;20.52;18.20;;;;;;;18.49;100.00;100978.28;1708991;82;21859;-85
2021/08/05 02:37:37;;;;;;;23.62;20.02;;;;;;;18.44;100.00;100984.53;1684323;83;21122;-90
2021/08/05 02:40:07;;;;;;;25.32;18.40;;;;;;;18.44;100.00;100987.98;1684249;83;21042;-86
2021/08/05 02:42:35;;;;;;;47.65;20.40;;;;;;;18.50;100.00;100993.63;1708637;83;21532;-85
2021/08/05 02:45:05;;;;;;;256.70;29.92;;;;;;;18.56;100.00;100985.08;1746967;80;21603;-86
2021/08/05 02:47:33;;;;;;;61.58;20.40;;;;;;;18.60;100.00;100989.87;1745540;80;21049;-86
2021/08/05 02:50:03;;;;;;;37.58;20.52;;;;;;;18.53;100.00;100990.66;1770513;80;21046;-84
2021/08/05 02:52:32;;;;;;;43.13;23.00;;;;;;;18.50;100.00;100998.40;1747648;81;21595;-85
2021/08/05 02:55:02;;;;;;;32.45;21.48;;;;;;;18.60;100.00;100993.83;1774434;79;21064;-86
2021/08/05 02:57:30;;;;;;;30.15;21.75;;;;;;;18.63;100.00;100997.15;1774944;79;21084;-86
2021/08/05 02:59:58;;;;;;;30.40;21.48;;;;;;;18.54;100.00;100995.80;1752589;80;21143;-88
2021/08/05 03:02:25;;;;;;;31.00;21.82;;;;;;;18.45;100.00;100994.91;1751048;80;21211;-85
2021/08/05 03:04:52;;;;;;;33.90;21.65;;;;;;;18.41;100.00;100994.91;1760180;80;21090;-85
2021/08/05 03:07:19;;;;;;;33.98;19.55;;;;;;;18.44;100.00;100990.63;1698115;82;21031;-85
2021/08/05 03:09:48;;;;;;;29.05;20.35;;;;;;;18.41;100.00;100995.39;1698329;82;21085;-86
2021/08/05 03:12:16;;;;;;;25.08;19.27;;;;;;;18.37;100.00;100995.38;1736192;80;21168;-87
2021/08/05 03:14:43;;;;;;;24.27;19.10;;;;;;;18.34;100.00;100992.57;1742342;80;21017;-84
2021/08/05 03:17:10;;;;;;;23.32;18.60;;;;;;;18.31;100.00;100988.92;1739177;81;20995;-88
2021/08/05 03:19:37;;;;;;;21.07;18.82;;;;;;;18.25;100.00;100990.88;1660034;83;21463;-85
2021/08/05 03:22:06;;;;;;;23.02;17.12;;;;;;;18.20;100.00;100999.72;1680379;83;21030;-85
2021/08/05 03:24:33;;;;;;;20.92;18.23;;;;;;;18.16;100.00;100995.76;1730089;81;21082;-88
2021/08/05 03:27:00;;;;;;;23.40;18.00;;;;;;;18.12;100.00;100990.79;1675934;84;20993;-90
2021/08/05 03:29:27;;;;;;;21.93;18.48;;;;;;;18.09;100.00;100990.27;1669294;83;21009;-85
2021/08/05 03:31:54;;;;;;;21.33;19.02;;;;;;;18.07;100.00;100994.87;1730851;80;21034;-85
2021/08/05 03:34:21;;;;;;;20.97;18.77;;;;;;;18.06;100.00;100999.83;1725746;81;21058;-84
2021/08/05 03:36:48;;;;;;;20.55;18.42;;;;;;;18.05;100.00;100995.03;1763413;79;21204;-87
2021/08/05 03:39:15;;;;;;;22.20;19.10;;;;;;;18.08;100.00;100995.20;1729499;80;21065;-84
2021/08/05 03:41:42;;;;;;;24.15;18.37;;;;;;;18.10;100.00;100994.56;1737589;80;21072;-85
2021/08/05 03:44:10;;;;;;;23.60;18.87;;;;;;;18.11;100.00;100992.27;1762897;79;21066;-87
2021/08/05 03:46:37;;;;;;;21.52;18.48;;;;;;;18.07;100.00;100992.23;1731500;80;21389;-87
2021/08/05 03:49:04;;;;;;;20.12;17.65;;;;;;;18.07;100.00;100994.87;1734329;80;21143;-89
2021/08/05 03:51:31;;;;;;;22.00;17.92;;;;;;;18.07;100.00;100993.08;1668988;83;22203;-85
2021/08/05 03:53:58;;;;;;;19.55;17.55;;;;;;;18.11;100.00;100991.77;1672190;83;21310;-89
2021/08/05 03:56:26;;;;;;;20.62;18.57;;;;;;;18.12;100.00;100996.06;1675234;83;21172;-88
2021/08/05 03:58:53;;;;;;;20.80;18.60;;;;;;;18.15;100.00;101003.33;1735116;80;21613;-85
2021/08/05 04:01:20;;;;;;;20.02;17.85;;;;;;;18.16;100.00;101001.84;1734784;80;21475;-83
2021/08/05 04:03:47;;;;;;;21.68;19.37;;;;;;;18.20;100.00;101004.52;1757351;80;21125;-85
2021/08/05 04:06:15;;;;;;;20.27;17.73;;;;;;;18.25;100.00;101004.86;1680859;80;21117;-84
2021/08/05 04:08:42;;;;;;;24.52;19.75;;;;;;;18.33;100.00;101005.41;1685063;81;21077;-85
2021/08/05 04:11:10;;;;;;;24.57;19.00;;;;;;;18.40;100.00;101004.27;1717118;81;21123;-84
2021/08/05 04:13:37;;;;;;;22.30;19.25;;;;;;;18.48;100.00;101000.86;1767011;79;21159;-83
2021/08/05 04:16:07;;;;;;;20.17;18.17;;;;;;;18.57;100.00;100998.09;1736097;79;21079;-87
2021/08/05 04:18:35;;;;;;;20.20;17.65;;;;;;;18.67;100.00;100997.14;1755160;79;21041;-85
2021/08/05 04:21:01;;;;;;;20.70;18.52;;;;;;;18.78;100.00;101002.62;1759679;79;21502;-87
2021/08/05 04:23:28;;;;;;;19.48;17.65;;;;;;;18.87;100.00;101007.75;1770257;79;21042;-88
2021/08/05 04:25:57;;;;;;;20.15;18.15;;;;;;;18.96;100.00;101006.48;1703401;81;21023;-86
2021/08/05 04:28:24;;;;;;;20.70;18.45;;;;;;;19.07;100.00;101000.41;1707334;81;21101;-86
2021/08/05 04:30:52;;;;;;;19.57;17.57;;;;;;;19.18;100.00;100997.98;1706166;81;21529;-87
2021/08/05 04:33:20;;;;;;;20.62;18.62;;;;;;;19.29;100.00;100996.84;1709323;82;21287;-83
2021/08/05 04:35:47;;;;;;;19.50;17.60;;;;;;;19.39;100.00;100997.98;1685773;81;21085;-87
2021/08/05 04:38:14;;;;;;;20.60;18.45;;;;;;;19.50;100.00;101000.31;1676461;83;21791;-89
2021/08/05 04:40:42;;;;;;;20.25;18.10;;;;;;;19.61;100.00;100998.31;1705640;81;21029;-86
2021/08/05 04:43:09;;;;;;;19.90;17.87;;;;;;;19.68;100.00;100999.30;1735110;80;21081;-85
2021/08/05 04:45:36;;;;;;;21.82;17.77;;;;;;;19.79;100.00;100997.66;1760565;79;21140;-85
2021/08/05 04:48:07;;;;;;;22.65;17.25;;;;;;;19.89;100.00;100994.05;1744443;78;21543;-87
2021/08/05 04:50:38;;;;;;;19.87;17.67;;;;;;;20.02;100.00;100995.66;1677212;83;21087;-86
2021/08/05 04:53:07;;;;;;;18.00;16.30;;;;;;;20.12;100.00;100993.66;1707751;82;21157;-87
2021/08/05 04:55:35;;;;;;;23.22;15.88;;;;;;;20.23;100.00;100992.98;1678977;82;21072;-85
2021/08/05 04:58:06;;;;;;;19.70;17.75;;;;;;;20.33;100.00;100994.91;1702045;82;21630;-85
2021/08/05 05:00:37;;;;;;;20.00;17.25;;;;;;;20.46;100.00;100991.25;1671956;82;21137;-88
2021/08/05 05:03:05;;;;;;;18.92;16.97;;;;;;;20.59;100.00;100987.22;1733548;80;21133;-86
2021/08/05 05:05:34;;;;;;;19.02;17.05;;;;;;;20.72;100.00;100987.47;1769521;79;21034;-86
2021/08/05 05:08:22;;;;;;;19.02;16.77;;;;;;;20.85;100.00;100986.13;1774276;79;21105;-90
2021/08/05 05:10:58;;;;;;;24.23;18.73;;;;;;;20.98;100.00;100981.08;1697744;81;21137;-85
2021/08/05 05:13:26;;;;;;;18.95;16.90;;;;;;;21.12;100.00;100980.31;1691841;82;21153;-88
2021/08/05 05:15:54;;;;;;;19.23;17.42;;;;;;;21.25;100.00;100972.30;1700263;82;21070;-88
2021/08/05 05:18:24;;;;;;;21.50;17.75;;;;;;;21.38;100.00;100977.00;1675481;83;21041;-86
2021/08/05 05:20:53;;;;;;;;;;;;;;;21.48;100.00;100979.39;1705663;82;21069;-83
2021/08/05 05:23:21;;;;;;;23.20;18.27;;;;;;;21.56;100.00;100970.86;1706752;82;20237;-86
2021/08/05 05:25:48;;;;;;;33.35;19.82;;;;;;;21.65;100.00;100970.33;1699767;82;21062;-85
2021/08/05 05:28:15;;;;;;;37.90;19.07;;;;;;;21.74;100.00;100975.88;1701667;82;21139;-88
2021/08/05 05:30:43;;;;;;;72.40;21.33;;;;;;;21.83;100.00;100979.78;1777678;78;21171;-85
2021/08/05 05:33:10;;;;;;;19.98;17.90;;;;;;;21.89;100.00;100973.23;1712141;82;21540;-85
2021/08/05 05:35:38;;;;;;;93.58;21.85;;;;;;;21.97;100.00;100967.52;1708385;81;21081;-86
2021/08/05 05:38:06;;;;;;;24.90;17.23;;;;;;;22.03;100.00;100971.60;1669126;84;21081;-85
2021/08/05 05:40:33;;;;;;;23.75;17.20;;;;;;;22.10;100.00;100964.23;1692952;83;21258;-84
2021/08/05 05:43:01;;;;;;;17.27;15.38;;;;;;;22.18;100.00;100961.48;1730121;81;21137;-85
2021/08/05 05:45:30;;;;;;;16.67;14.83;;;;;;;22.28;100.00;100962.04;1680835;84;21595;-84
2021/08/05 05:48:00;;;;;;;17.23;15.43;;;;;;;22.37;100.00;100962.27;1731208;80;21010;-83
2021/08/05 05:50:28;;;;;;;16.05;14.40;;;;;;;22.48;100.00;100965.45;1748848;80;21550;-83
2021/08/05 05:52:57;;;;;;;15.60;14.20;;;;;;;22.60;100.00;100971.95;1743598;80;22255;-86
2021/08/05 05:55:28;;;;;;;17.25;15.45;;;;;;;22.72;100.00;100964.81;1744490;80;21619;-84
2021/08/05 05:57:57;;;;;;;15.70;14.25;;;;;;;22.82;100.00;100958.21;1741214;81;21246;-83
2021/08/05 06:00:26;;;;;;;16.20;14.15;;;;;;;22.94;100.00;100958.54;1716681;81;21128;-88
2021/08/05 06:02:53;;;;;;;20.82;14.65;;;;;;;23.04;100.00;100958.70;1740925;81;21033;-83
2021/08/05 06:05:23;;;;;;;15.18;13.68;;;;;;;23.12;100.00;100954.59;1744323;81;21033;-85
2021/08/05 06:07:54;;;;;;;34.83;14.38;;;;;;;23.21;100.00;100957.47;1745577;80;21010;-87
2021/08/05 06:10:23;;;;;;;20.77;12.25;;;;;;;23.33;100.00;100958.30;1718524;82;21009;-87
2021/08/05 06:12:53;;;;;;;17.80;11.25;;;;;;;23.45;100.00;100958.08;1690801;81;21093;-87
2021/08/05 06:15:28;;;;;;;15.98;11.05;;;;;;;23.58;100.00;100961.34;1721771;82;21096;-86
2021/08/05 06:19:31;;;;;;;;;;;;;;;;;;;;;
2021/08/05 06:21:19;;;;;;;10.48;9.38;;;;;;;23.87;100.00;100959.51;1636986;82;21100;-90
2021/08/05 06:23:54;;;;;;;13.72;10.40;;;;;;;24.10;100.00;100959.24;1750891;80;21065;-86
2021/08/05 06:26:28;;;;;;;13.03;9.35;;;;;;;24.23;100.00;100947.84;1702306;82;21107;-87
2021/08/05 06:29:07;;;;;;;12.63;9.78;;;;;;;24.38;100.00;100948.52;1703930;81;21144;-89
2021/08/05 06:56:54;;;;;;;;;;;;;;;;;;;;;
2021/08/05 07:48:51;;;;;;;6.00;5.28;;;;;;;27.39;57.61;100916.82;1654981;84;21437;-88
2021/08/05 12:19:09;;;;;;;6.08;4.33;;;;;;;32.45;38.57;100700.04;1655768;84;21589;-87
2021/08/05 13:03:59;;;;;;;56.70;12.95;;;;;;;30.72;42.29;100671.45;1544674;90;21606;-85
2021/08/05 13:07:18;;;;;;;;;;;;;;;;;;;;;
2021/08/05 13:18:30;;;;;;;9.05;6.78;;;;;;;30.25;46.68;100667.28;1286483;108;21309;-85
2021/08/05 13:29:59;;;;;;;;;;;;;;;;;;;;;
2021/08/05 13:33:30;;;;;;;111.90;25.08;;;;;;;29.77;49.83;100659.23;1308831;106;21173;-85
2021/08/05 13:36:01;;;;;;;63.98;16.40;;;;;;;29.65;53.88;100656.63;1382629;100;21234;-85
2021/08/05 13:38:48;;;;;;;84.25;27.55;;;;;;;29.56;57.63;100658.36;1402301;100;21052;-84
2021/08/05 13:41:15;;;;;;;43.78;17.73;;;;;;;29.49;67.13;100659.04;1497266;92;21113;-85
2021/08/05 13:43:42;;;;;;;30.35;16.10;;;;;;;29.44;75.10;100653.59;1587039;88;21648;-82
2021/08/05 13:46:09;;;;;;;32.05;20.68;;;;;;;29.40;76.58;100653.77;1612341;88;21053;-83
2021/08/05 13:48:38;;;;;;;19.62;12.53;;;;;;;29.34;74.09;100656.88;1591628;88;21120;-85
2021/08/05 13:51:05;;;;;;;12.80;10.23;;;;;;;29.28;73.96;100657.28;1707720;83;21116;-82
2021/08/05 13:53:33;;;;;;;16.15;13.22;;;;;;;29.22;75.38;100658.24;1690830;83;21797;-84
2021/08/05 13:56:00;;;;;;;13.88;10.45;;;;;;;29.16;73.26;100659.20;1690075;83;22165;-83
2021/08/05 13:58:27;;;;;;;28.67;11.63;;;;;;;29.11;68.45;100660.45;1662105;83;21145;-84
2021/08/05 14:00:54;;;;;;;18.05;10.80;;;;;;;29.05;67.20;100656.86;1681601;83;21224;-83
2021/08/05 14:03:22;;;;;;;15.60;9.45;;;;;;;29.01;72.51;100662.39;1691837;83;21548;-83
2021/08/05 14:05:49;;;;;;;51.77;27.13;;;;;;;28.98;80.14;100657.52;1687849;83;21151;-84
2021/08/05 14:08:16;;;;;;;23.73;13.88;;;;;;;28.94;86.87;100656.34;1694895;82;21066;-84
2021/08/05 14:10:44;;;;;;;19.30;11.08;;;;;;;28.91;83.69;100657.64;1697442;82;21678;-86
2021/08/05 14:13:11;;;;;;;26.33;9.63;;;;;;;28.87;86.39;100651.14;1697253;82;21220;-85
2021/08/05 14:15:42;;;;;;;26.30;8.73;;;;;;;28.81;79.92;100654.74;1696526;81;21661;-84
2021/08/05 14:18:10;;;;;;;21.87;8.28;;;;;;;28.76;84.30;100655.98;1672130;83;21205;-85
2021/08/05 14:20:42;;;;;;;38.65;12.13;;;;;;;28.69;80.04;100649.92;1687218;83;21993;-82
2021/08/05 14:23:09;;;;;;;18.55;7.67;;;;;;;28.63;88.25;100651.66;1665253;84;21058;-83
2021/08/05 14:25:36;;;;;;;40.38;8.58;;;;;;;28.56;88.22;100642.44;1683073;83;21689;-85
2021/08/05 14:28:04;;;;;;;59.75;10.58;;;;;;;28.50;80.07;100646.03;1688167;83;21112;-83
2021/08/05 14:30:31;;;;;;;50.17;9.08;;;;;;;28.44;85.88;100645.63;1673830;84;21069;-82
2021/08/05 14:32:58;;;;;;;28.87;8.93;;;;;;;28.37;91.63;100635.57;1679865;83;21146;-84
2021/08/05 14:35:25;;;;;;;13.78;7.85;;;;;;;28.31;97.19;100639.48;1677068;83;21143;-83
2021/08/05 14:37:52;;;;;;;17.05;7.15;;;;;;;28.28;98.51;100633.25;1660094;84;21941;-83
2021/08/05 14:40:19;;;;;;;20.70;7.58;;;;;;;28.25;97.40;100635.03;1663566;85;21131;-84
2021/08/05 14:42:46;;;;;;;29.42;8.48;;;;;;;28.21;100.00;100636.56;1647280;84;21152;-85
2021/08/05 14:45:17;;;;;;;26.57;9.28;;;;;;;28.21;100.00;100637.07;1693557;83;21104;-89
2021/08/05 14:47:43;;;;;;;22.15;9.63;;;;;;;28.18;100.00;100634.34;1695663;83;21132;-82
2021/08/05 14:50:11;;;;;;;21.75;8.73;;;;;;;28.16;100.00;100635.12;1695488;83;21061;-82
2021/08/05 14:52:38;;;;;;;19.92;8.48;;;;;;;28.14;100.00;100627.84;1650803;85;21103;-82
2021/08/05 14:55:07;;;;;;;14.73;7.70;;;;;;;28.14;100.00;100626.50;1670379;83;21197;-83
2021/08/05 14:57:34;;;;;;;15.05;7.65;;;;;;;28.12;100.00;100627.25;1706787;83;21075;-82
2021/08/05 15:00:04;;;;;;;13.50;7.25;;;;;;;28.11;100.00;100622.94;1697788;83;21023;-83
2021/08/05 15:02:31;;;;;;;17.67;7.33;;;;;;;28.08;100.00;100620.20;1660940;84;20995;-82
2021/08/05 15:04:59;;;;;;;18.20;7.78;;;;;;;28.07;100.00;100616.44;1655429;84;21027;-84
2021/08/05 15:07:28;;;;;;;15.58;8.03;;;;;;;28.06;100.00;100614.77;1668414;84;21796;-83
2021/08/05 15:09:56;;;;;;;9.98;7.10;;;;;;;28.04;100.00;100604.31;1676466;84;21600;-85
2021/08/05 15:12:27;;;;;;;13.18;7.15;;;;;;;28.02;100.00;100615.77;1681918;84;21048;-84
2021/08/05 15:14:51;;;;;;;11.15;6.85;;;;;;;28.00;100.00;100615.97;1637078;84;21687;-86
2021/08/05 15:17:18;;;;;;;16.90;7.53;;;;;;;28.01;100.00;100617.60;1642369;84;21129;-84
2021/08/05 15:19:45;;;;;;;10.13;7.40;;;;;;;28.01;100.00;100618.94;1635000;86;21068;-84
2021/08/05 15:22:12;;;;;;;19.70;7.60;;;;;;;28.02;100.00;100614.42;1702915;82;21576;-85
2021/08/05 15:24:40;;;;;;;35.60;11.78;;;;;;;28.00;100.00;100607.95;1622532;86;21101;-86
2021/08/05 15:27:09;;;;;;;56.80;21.75;;;;;;;28.02;100.00;100607.73;1643768;85;21109;-84
2021/08/05 15:29:37;;;;;;;40.12;18.75;;;;;;;28.00;100.00;100600.45;1709419;83;21125;-84
2021/08/05 15:32:04;;;;;;;36.03;17.65;;;;;;;27.98;100.00;100597.19;1693328;83;21965;-84
2021/08/05 15:34:32;;;;;;;33.00;16.90;;;;;;;27.95;100.00;100593.66;1702668;82;21556;-85
2021/08/05 15:36:59;;;;;;;31.52;15.60;;;;;;;27.92;100.00;100591.43;1709084;82;21051;-83
2021/08/05 15:39:26;;;;;;;28.85;14.03;;;;;;;27.89;100.00;100588.70;1706153;83;21156;-84
2021/08/05 15:41:53;;;;;;;32.73;12.85;;;;;;;27.87;100.00;100582.76;1713785;82;21114;-84
2021/08/05 15:44:20;;;;;;;24.27;13.40;;;;;;;27.84;100.00;100580.56;1664070;83;21490;-84
2021/08/05 15:46:47;;;;;;;35.23;13.95;;;;;;;27.82;100.00;100584.78;1671066;84;21121;-84
2021/08/05 15:49:17;;;;;;;28.47;13.20;;;;;;;27.80;100.00;100588.21;1675150;84;21071;-83
2021/08/05 15:51:44;;;;;;;28.87;13.48;;;;;;;27.76;100.00;100587.05;1650955;84;21077;-82
2021/08/05 15:54:15;;;;;;;33.73;12.53;;;;;;;27.73;100.00;100584.03;1677751;85;21097;-82
2021/08/05 15:56:42;;;;;;;38.08;12.63;;;;;;;27.69;100.00;100593.04;1655223;85;21176;-83
2021/08/05 15:59:14;;;;;;;28.38;12.75;;;;;;;27.66;100.00;100587.63;1656223;84;21601;-83
2021/08/05 16:01:41;;;;;;;44.33;16.62;;;;;;;27.63;100.00;100582.73;1670374;85;21093;-84
2021/08/05 16:04:08;;;;;;;41.60;20.35;;;;;;;27.62;100.00;100578.95;1664010;85;21030;-83
2021/08/05 16:06:38;;;;;;;34.38;20.15;;;;;;;27.59;100.00;100576.73;1670070;84;21015;-83
2021/08/05 16:09:06;;;;;;;36.15;17.25;;;;;;;27.52;100.00;100574.98;1649300;84;21681;-82
2021/08/05 16:11:34;;;;;;;36.58;18.32;;;;;;;27.47;100.00;100566.02;1670173;85;20947;-83
2021/08/05 16:14:01;;;;;;;32.05;18.23;;;;;;;27.41;100.00;100569.05;1674468;84;21075;-83
2021/08/05 16:16:28;;;;;;;36.10;17.85;;;;;;;27.34;100.00;100566.48;1682771;85;21132;-82
2021/08/05 16:18:57;;;;;;;34.08;17.27;;;;;;;27.28;100.00;100565.24;1673326;85;21077;-83
2021/08/05 16:21:25;;;;;;;26.93;15.60;;;;;;;27.20;100.00;100563.19;1688811;82;22059;-84
2021/08/05 16:23:53;;;;;;;28.57;15.68;;;;;;;27.16;100.00;100561.20;1721717;82;21113;-83
2021/08/05 16:26:20;;;;;;;28.83;15.32;;;;;;;27.11;100.00;100562.41;1699330;82;21058;-84
2021/08/05 16:28:48;;;;;;;57.17;17.02;;;;;;;27.04;100.00;100558.48;1710414;82;21034;-83
2021/08/05 16:31:15;;;;;;;76.55;21.12;;;;;;;27.01;100.00;100562.92;1661693;84;21105;-83
2021/08/05 16:33:42;;;;;;;71.60;26.42;;;;;;;26.98;100.00;100552.71;1657188;85;21761;-83
2021/08/05 16:36:09;;;;;;;36.00;17.23;;;;;;;26.94;100.00;100556.36;1717508;82;21019;-85
2021/08/05 16:38:37;;;;;;;32.00;15.58;;;;;;;26.88;100.00;100554.59;1696042;82;21101;-84
2021/08/05 16:41:04;;;;;;;35.15;15.63;;;;;;;26.82;100.00;100554.14;1639218;85;21083;-84
2021/08/05 16:43:31;;;;;;;39.10;21.90;;;;;;;26.75;100.00;100554.21;1620286;85;21074;-82
2021/08/05 16:45:58;;;;;;;162.92;122.20;;;;;;;26.70;100.00;100551.38;1655973;84;21151;-83
2021/08/05 16:48:25;;;;;;;94.90;68.60;;;;;;;26.61;100.00;100554.88;1668492;85;21113;-81
2021/08/05 16:50:52;;;;;;;54.00;36.30;;;;;;;26.55;100.00;100556.59;1680717;83;21165;-85
2021/08/05 16:53:19;;;;;;;39.58;24.87;;;;;;;26.48;100.00;100556.38;1704136;82;21066;-83
2021/08/05 16:55:47;;;;;;;34.30;21.37;;;;;;;26.40;100.00;100556.95;1694406;82;21075;-84
2021/08/05 16:58:14;;;;;;;30.97;18.32;;;;;;;26.36;100.00;100556.30;1715094;82;21780;-84
2021/08/05 17:00:41;;;;;;;28.00;18.87;;;;;;;26.32;100.00;100565.78;1650196;84;21594;-84
2021/08/05 17:03:09;;;;;;;32.70;18.20;;;;;;;26.28;100.00;100558.73;1645697;84;21034;-85
2021/08/05 17:05:39;;;;;;;31.97;17.85;;;;;;;26.24;100.00;100552.22;1659797;84;21177;-83
2021/08/05 17:08:06;;;;;;;28.80;17.30;;;;;;;26.19;100.00;100547.55;1697390;82;21082;-84
2021/08/05 17:10:34;;;;;;;29.72;17.60;;;;;;;26.16;100.00;100541.84;1653069;84;21607;-84
2021/08/05 17:13:03;;;;;;;24.77;15.13;;;;;;;26.12;100.00;100541.43;1658636;85;21118;-84
2021/08/05 17:15:31;;;;;;;18.37;14.20;;;;;;;26.06;100.00;100544.45;1676269;83;21017;-84
2021/08/05 17:17:58;;;;;;;21.05;13.88;;;;;;;26.01;100.00;100544.81;1687393;83;21102;-83
2021/08/05 17:20:26;;;;;;;27.95;14.15;;;;;;;25.97;100.00;100547.11;1691706;83;21038;-84
2021/08/05 17:22:53;;;;;;;24.32;12.78;;;;;;;25.91;100.00;100547.98;1690133;83;21126;-83
2021/08/05 17:25:21;;;;;;;17.73;12.03;;;;;;;25.85;100.00;100548.34;1684752;83;21080;-83
2021/08/05 17:27:48;;;;;;;19.70;11.68;;;;;;;25.80;100.00;100546.33;1695442;83;21042;-82
2021/08/05 17:30:16;;;;;;;39.40;12.58;;;;;;;25.76;100.00;100549.11;1710774;83;20955;-83
2021/08/05 17:32:43;;;;;;;39.38;12.70;;;;;;;25.75;100.00;100546.67;1670687;84;21086;-84
2021/08/05 17:35:11;;;;;;;33.48;12.73;;;;;;;25.76;100.00;100545.11;1698490;83;21188;-83
2021/08/05 17:37:38;;;;;;;32.33;12.47;;;;;;;25.78;100.00;100539.58;1684353;82;21022;-83
2021/08/05 17:40:06;;;;;;;29.42;12.88;;;;;;;25.78;100.00;100539.05;1711625;83;20971;-83
2021/08/05 17:42:33;;;;;;;34.35;13.88;;;;;;;25.78;100.00;100545.72;1710481;82;21469;-83
2021/08/05 17:45:00;;;;;;;33.38;15.50;;;;;;;25.76;100.00;100540.31;1673504;83;20967;-81
2021/08/05 17:47:28;;;;;;;30.35;15.72;;;;;;;25.74;100.00;100539.20;1713582;83;21122;-82
2021/08/05 17:49:56;;;;;;;31.70;15.60;;;;;;;25.70;100.00;100539.33;1690998;83;21053;-84
2021/08/05 17:52:23;;;;;;;33.95;15.58;;;;;;;25.67;100.00;100539.78;1698073;83;22068;-83
2021/08/05 17:54:50;;;;;;;36.85;14.80;;;;;;;25.62;100.00;100537.77;1656165;85;21125;-84
2021/08/05 17:57:17;;;;;;;30.52;14.35;;;;;;;25.57;100.00;100537.58;1656100;85;21192;-83
2021/08/05 17:59:44;;;;;;;26.05;13.72;;;;;;;25.53;100.00;100538.23;1655304;85;21182;-83
2021/08/05 18:02:11;;;;;;;29.10;14.53;;;;;;;25.49;100.00;100535.18;1632851;84;21413;-83
2021/08/05 18:04:38;;;;;;;23.45;13.22;;;;;;;25.44;100.00;100535.02;1645510;85;21168;-82
2021/08/05 18:07:05;;;;;;;27.85;14.40;;;;;;;25.38;100.00;100538.52;1656705;83;21441;-82